sensor_id;sensor_type;location;lat;lon;timestamp;P1;durP1;ratioP1;P2;durP2;ratioP2
75700;SDS011;64321;48.796;44.740;2023-04-05T00:01:05;9.50;;;6.03;;
75700;SDS011;64321;48.796;44.740;2023-04-05T00:06:46;10.63;;;5.88;;
75700;SDS011;64321;48.796;44.740;2023-04-05T00:19:27;15.55;;;9.13;;
75700;SDS011;64321;48.796;44.740;2023-04-05T00:25:11;23.25;;;13.57;;
75700;SDS011;64321;48.796;44.740;2023-04-05T00:31:15;25.95;;;16.98;;
75700;SDS011;64321;48.796;44.740;2023-04-05T00:36:40;30.98;;;19.15;;
75700;SDS011;64321;48.796;44.740;2023-04-05T00:48:00;30.15;;;19.98;;
75700;SDS011;64321;48.796;44.740;2023-04-05T00:53:14;41.97;;;28.00;;
75700;SDS011;64321;48.796;44.740;2023-04-05T00:58:48;42.63;;;28.15;;
75700;SDS011;64321;48.796;44.740;2023-04-05T01:04:23;37.97;;;23.20;;
75700;SDS011;64321;48.796;44.740;2023-04-05T01:10:09;35.08;;;22.33;;
75700;SDS011;64321;48.796;44.740;2023-04-05T01:28:01;48.60;;;31.23;;
75700;SDS011;64321;48.796;44.740;2023-04-05T01:39:34;40.92;;;22.83;;
75700;SDS011;64321;48.796;44.740;2023-04-05T01:45:00;37.63;;;20.05;;
75700;SDS011;64321;48.796;44.740;2023-04-05T01:50:43;27.70;;;14.93;;
75700;SDS011;64321;48.796;44.740;2023-04-05T01:56:38;22.17;;;12.90;;
75700;SDS011;64321;48.796;44.740;2023-04-05T02:02:11;23.05;;;13.20;;
75700;SDS011;64321;48.796;44.740;2023-04-05T02:07:52;19.23;;;11.57;;
75700;SDS011;64321;48.796;44.740;2023-04-05T02:14:18;22.83;;;12.50;;
75700;SDS011;64321;48.796;44.740;2023-04-05T02:19:46;34.17;;;19.83;;
75700;SDS011;64321;48.796;44.740;2023-04-05T02:25:17;44.95;;;25.52;;
75700;SDS011;64321;48.796;44.740;2023-04-05T02:31:18;41.33;;;24.70;;
75700;SDS011;64321;48.796;44.740;2023-04-05T02:37:09;41.83;;;25.05;;
75700;SDS011;64321;48.796;44.740;2023-04-05T02:43:17;28.08;;;17.02;;
75700;SDS011;64321;48.796;44.740;2023-04-05T02:48:37;29.77;;;17.48;;
75700;SDS011;64321;48.796;44.740;2023-04-05T02:54:27;39.72;;;23.92;;
75700;SDS011;64321;48.796;44.740;2023-04-05T03:00:47;59.67;;;35.58;;
75700;SDS011;64321;48.796;44.740;2023-04-05T03:06:37;44.13;;;28.15;;
75700;SDS011;64321;48.796;44.740;2023-04-05T03:12:09;28.98;;;18.08;;
75700;SDS011;64321;48.796;44.740;2023-04-05T03:17:48;22.63;;;12.52;;
75700;SDS011;64321;48.796;44.740;2023-04-05T03:23:29;18.17;;;9.48;;
75700;SDS011;64321;48.796;44.740;2023-04-05T03:28:59;17.58;;;10.35;;
75700;SDS011;64321;48.796;44.740;2023-04-05T03:35:22;21.98;;;11.52;;
75700;SDS011;64321;48.796;44.740;2023-04-05T03:41:26;19.55;;;10.90;;
75700;SDS011;64321;48.796;44.740;2023-04-05T03:47:23;17.17;;;10.63;;
75700;SDS011;64321;48.796;44.740;2023-04-05T03:53:10;20.88;;;10.77;;
75700;SDS011;64321;48.796;44.740;2023-04-05T03:58:47;23.63;;;10.98;;
75700;SDS011;64321;48.796;44.740;2023-04-05T04:04:30;18.70;;;11.40;;
75700;SDS011;64321;48.796;44.740;2023-04-05T04:09:49;21.73;;;12.18;;
75700;SDS011;64321;48.796;44.740;2023-04-05T04:15:16;21.27;;;12.63;;
75700;SDS011;64321;48.796;44.740;2023-04-05T04:33:22;15.95;;;10.18;;
75700;SDS011;64321;48.796;44.740;2023-04-05T04:38:58;18.85;;;11.07;;
75700;SDS011;64321;48.796;44.740;2023-04-05T04:44:55;18.88;;;11.00;;
75700;SDS011;64321;48.796;44.740;2023-04-05T04:50:56;16.17;;;9.98;;
75700;SDS011;64321;48.796;44.740;2023-04-05T04:56:48;19.60;;;10.25;;
75700;SDS011;64321;48.796;44.740;2023-04-05T05:02:26;19.50;;;11.05;;
75700;SDS011;64321;48.796;44.740;2023-04-05T05:08:16;26.05;;;12.63;;
75700;SDS011;64321;48.796;44.740;2023-04-05T05:13:31;20.65;;;10.35;;
75700;SDS011;64321;48.796;44.740;2023-04-05T05:19:21;24.08;;;11.20;;
75700;SDS011;64321;48.796;44.740;2023-04-05T05:31:02;22.40;;;12.15;;
75700;SDS011;64321;48.796;44.740;2023-04-05T05:41:58;29.05;;;12.80;;
75700;SDS011;64321;48.796;44.740;2023-04-05T05:47:28;20.75;;;12.30;;
75700;SDS011;64321;48.796;44.740;2023-04-05T05:53:09;26.08;;;13.23;;
75700;SDS011;64321;48.796;44.740;2023-04-05T06:05:21;27.15;;;14.93;;
75700;SDS011;64321;48.796;44.740;2023-04-05T06:11:23;26.50;;;13.50;;
75700;SDS011;64321;48.796;44.740;2023-04-05T06:16:48;25.38;;;12.30;;
75700;SDS011;64321;48.796;44.740;2023-04-05T06:22:30;28.27;;;13.82;;
75700;SDS011;64321;48.796;44.740;2023-04-05T06:27:48;21.10;;;9.63;;
75700;SDS011;64321;48.796;44.740;2023-04-05T06:33:16;20.95;;;11.35;;
75700;SDS011;64321;48.796;44.740;2023-04-05T06:38:53;19.75;;;10.55;;
75700;SDS011;64321;48.796;44.740;2023-04-05T06:45:15;20.63;;;8.95;;
75700;SDS011;64321;48.796;44.740;2023-04-05T06:50:59;21.02;;;10.93;;
75700;SDS011;64321;48.796;44.740;2023-04-05T06:56:40;21.30;;;11.02;;
75700;SDS011;64321;48.796;44.740;2023-04-05T07:02:20;25.35;;;11.80;;
75700;SDS011;64321;48.796;44.740;2023-04-05T07:08:06;30.50;;;13.68;;
75700;SDS011;64321;48.796;44.740;2023-04-05T07:14:03;37.90;;;14.35;;
75700;SDS011;64321;48.796;44.740;2023-04-05T07:24:57;37.85;;;13.05;;
75700;SDS011;64321;48.796;44.740;2023-04-05T07:36:34;27.50;;;12.52;;
75700;SDS011;64321;48.796;44.740;2023-04-05T07:41:51;21.75;;;12.45;;
75700;SDS011;64321;48.796;44.740;2023-04-05T07:47:44;22.38;;;10.55;;
75700;SDS011;64321;48.796;44.740;2023-04-05T07:53:22;19.85;;;11.43;;
75700;SDS011;64321;48.796;44.740;2023-04-05T07:58:47;23.50;;;11.10;;
75700;SDS011;64321;48.796;44.740;2023-04-05T08:04:19;19.35;;;7.95;;
75700;SDS011;64321;48.796;44.740;2023-04-05T08:09:49;15.95;;;7.30;;
75700;SDS011;64321;48.796;44.740;2023-04-05T08:20:53;19.40;;;11.05;;
75700;SDS011;64321;48.796;44.740;2023-04-05T08:26:30;20.38;;;10.10;;
75700;SDS011;64321;48.796;44.740;2023-04-05T08:32:06;14.15;;;9.10;;
75700;SDS011;64321;48.796;44.740;2023-04-05T08:37:36;20.00;;;10.20;;
75700;SDS011;64321;48.796;44.740;2023-04-05T08:48:31;15.80;;;8.23;;
75700;SDS011;64321;48.796;44.740;2023-04-05T08:53:39;15.95;;;9.65;;
75700;SDS011;64321;48.796;44.740;2023-04-05T08:58:43;13.70;;;7.72;;
75700;SDS011;64321;48.796;44.740;2023-04-05T09:03:48;20.45;;;7.10;;
75700;SDS011;64321;48.796;44.740;2023-04-05T09:08:50;11.48;;;6.82;;
75700;SDS011;64321;48.796;44.740;2023-04-05T09:13:53;16.98;;;8.10;;
75700;SDS011;64321;48.796;44.740;2023-04-05T09:18:56;12.38;;;5.88;;
75700;SDS011;64321;48.796;44.740;2023-04-05T09:23:58;15.18;;;7.95;;
75700;SDS011;64321;48.796;44.740;2023-04-05T09:29:01;18.88;;;8.55;;
75700;SDS011;64321;48.796;44.740;2023-04-05T09:34:04;12.85;;;6.75;;
75700;SDS011;64321;48.796;44.740;2023-04-05T09:39:07;10.43;;;3.75;;
75700;SDS011;64321;48.796;44.740;2023-04-05T09:44:10;10.68;;;5.15;;
75700;SDS011;64321;48.796;44.740;2023-04-05T09:49:12;6.80;;;2.88;;
75700;SDS011;64321;48.796;44.740;2023-04-05T09:54:15;7.95;;;4.53;;
75700;SDS011;64321;48.796;44.740;2023-04-05T09:59:18;8.38;;;3.58;;
75700;SDS011;64321;48.796;44.740;2023-04-05T10:04:28;5.55;;;3.08;;
75700;SDS011;64321;48.796;44.740;2023-04-05T10:09:43;7.15;;;4.15;;
75700;SDS011;64321;48.796;44.740;2023-04-05T10:14:46;7.38;;;2.35;;
75700;SDS011;64321;48.796;44.740;2023-04-05T10:24:56;3.72;;;2.03;;
75700;SDS011;64321;48.796;44.740;2023-04-05T10:30:04;4.80;;;1.77;;
75700;SDS011;64321;48.796;44.740;2023-04-05T10:35:18;6.03;;;2.00;;
75700;SDS011;64321;48.796;44.740;2023-04-05T10:40:22;4.07;;;2.10;;
75700;SDS011;64321;48.796;44.740;2023-04-05T10:45:26;5.18;;;2.70;;
75700;SDS011;64321;48.796;44.740;2023-04-05T10:50:30;5.50;;;1.60;;
75700;SDS011;64321;48.796;44.740;2023-04-05T10:55:33;6.95;;;1.30;;
75700;SDS011;64321;48.796;44.740;2023-04-05T11:00:36;3.03;;;2.28;;
75700;SDS011;64321;48.796;44.740;2023-04-05T11:06:23;10.52;;;3.22;;
75700;SDS011;64321;48.796;44.740;2023-04-05T11:11:38;7.45;;;2.83;;
75700;SDS011;64321;48.796;44.740;2023-04-05T11:16:53;4.35;;;2.00;;
75700;SDS011;64321;48.796;44.740;2023-04-05T11:22:11;5.72;;;3.30;;
75700;SDS011;64321;48.796;44.740;2023-04-05T11:27:59;13.60;;;2.80;;
75700;SDS011;64321;48.796;44.740;2023-04-05T11:33:17;4.57;;;2.22;;
75700;SDS011;64321;48.796;44.740;2023-04-05T11:49:50;7.55;;;2.90;;
75700;SDS011;64321;48.796;44.740;2023-04-05T11:55:41;2.55;;;1.05;;
75700;SDS011;64321;48.796;44.740;2023-04-05T12:00:58;5.18;;;1.40;;
75700;SDS011;64321;48.796;44.740;2023-04-05T12:06:03;4.35;;;2.10;;
75700;SDS011;64321;48.796;44.740;2023-04-05T12:11:09;2.88;;;1.13;;
75700;SDS011;64321;48.796;44.740;2023-04-05T12:16:14;8.57;;;2.85;;
75700;SDS011;64321;48.796;44.740;2023-04-05T12:21:19;6.78;;;2.85;;
75700;SDS011;64321;48.796;44.740;2023-04-05T12:26:23;5.65;;;1.30;;
75700;SDS011;64321;48.796;44.740;2023-04-05T12:31:41;4.32;;;1.83;;
75700;SDS011;64321;48.796;44.740;2023-04-05T12:36:44;7.97;;;2.30;;
75700;SDS011;64321;48.796;44.740;2023-04-05T12:41:59;3.28;;;1.90;;
75700;SDS011;64321;48.796;44.740;2023-04-05T12:47:02;4.25;;;2.15;;
75700;SDS011;64321;48.796;44.740;2023-04-05T12:52:06;4.70;;;1.50;;
75700;SDS011;64321;48.796;44.740;2023-04-05T12:57:08;5.03;;;1.00;;
75700;SDS011;64321;48.796;44.740;2023-04-05T13:02:13;2.85;;;1.40;;
75700;SDS011;64321;48.796;44.740;2023-04-05T13:07:16;3.13;;;1.10;;
75700;SDS011;64321;48.796;44.740;2023-04-05T13:12:18;7.20;;;1.00;;
75700;SDS011;64321;48.796;44.740;2023-04-05T13:17:20;4.68;;;2.08;;
75700;SDS011;64321;48.796;44.740;2023-04-05T13:22:23;3.67;;;1.38;;
75700;SDS011;64321;48.796;44.740;2023-04-05T13:27:25;4.45;;;2.60;;
75700;SDS011;64321;48.796;44.740;2023-04-05T13:32:28;4.95;;;1.02;;
75700;SDS011;64321;48.796;44.740;2023-04-05T13:37:30;3.55;;;1.83;;
75700;SDS011;64321;48.796;44.740;2023-04-05T13:42:32;4.85;;;2.53;;
75700;SDS011;64321;48.796;44.740;2023-04-05T13:47:35;2.72;;;0.90;;
75700;SDS011;64321;48.796;44.740;2023-04-05T13:52:37;3.15;;;1.00;;
75700;SDS011;64321;48.796;44.740;2023-04-05T13:57:39;4.18;;;1.38;;
75700;SDS011;64321;48.796;44.740;2023-04-05T14:02:41;4.65;;;2.25;;
75700;SDS011;64321;48.796;44.740;2023-04-05T14:07:44;4.10;;;0.93;;
75700;SDS011;64321;48.796;44.740;2023-04-05T14:12:49;9.20;;;1.20;;
75700;SDS011;64321;48.796;44.740;2023-04-05T14:17:52;5.05;;;1.58;;
75700;SDS011;64321;48.796;44.740;2023-04-05T14:22:54;9.52;;;2.85;;
75700;SDS011;64321;48.796;44.740;2023-04-05T14:27:57;8.40;;;2.65;;
75700;SDS011;64321;48.796;44.740;2023-04-05T14:32:59;11.63;;;2.22;;
75700;SDS011;64321;48.796;44.740;2023-04-05T14:38:02;11.23;;;2.10;;
75700;SDS011;64321;48.796;44.740;2023-04-05T14:43:04;14.07;;;3.50;;
75700;SDS011;64321;48.796;44.740;2023-04-05T14:48:07;9.90;;;3.70;;
75700;SDS011;64321;48.796;44.740;2023-04-05T14:53:09;12.18;;;3.72;;
75700;SDS011;64321;48.796;44.740;2023-04-05T14:58:12;12.50;;;3.80;;
75700;SDS011;64321;48.796;44.740;2023-04-05T15:03:15;14.63;;;4.43;;
75700;SDS011;64321;48.796;44.740;2023-04-05T15:08:20;15.25;;;6.00;;
75700;SDS011;64321;48.796;44.740;2023-04-05T15:13:24;17.90;;;5.75;;
75700;SDS011;64321;48.796;44.740;2023-04-05T15:18:27;18.90;;;5.72;;
75700;SDS011;64321;48.796;44.740;2023-04-05T15:23:30;20.90;;;6.22;;
75700;SDS011;64321;48.796;44.740;2023-04-05T15:28:32;23.60;;;7.35;;
75700;SDS011;64321;48.796;44.740;2023-04-05T15:33:35;25.60;;;6.55;;
75700;SDS011;64321;48.796;44.740;2023-04-05T15:38:38;26.30;;;7.68;;
75700;SDS011;64321;48.796;44.740;2023-04-05T15:43:41;24.70;;;8.15;;
75700;SDS011;64321;48.796;44.740;2023-04-05T15:48:43;33.80;;;10.05;;
75700;SDS011;64321;48.796;44.740;2023-04-05T15:53:47;27.40;;;7.32;;
75700;SDS011;64321;48.796;44.740;2023-04-05T15:58:51;22.20;;;9.30;;
75700;SDS011;64321;48.796;44.740;2023-04-05T16:03:58;23.15;;;9.05;;
75700;SDS011;64321;48.796;44.740;2023-04-05T16:09:02;22.90;;;8.68;;
75700;SDS011;64321;48.796;44.740;2023-04-05T16:14:08;29.02;;;8.55;;
75700;SDS011;64321;48.796;44.740;2023-04-05T16:19:14;23.70;;;10.10;;
75700;SDS011;64321;48.796;44.740;2023-04-05T16:24:20;20.65;;;9.30;;
75700;SDS011;64321;48.796;44.740;2023-04-05T16:29:32;23.25;;;9.13;;
75700;SDS011;64321;48.796;44.740;2023-04-05T16:34:41;32.85;;;8.05;;
75700;SDS011;64321;48.796;44.740;2023-04-05T16:39:48;33.85;;;9.77;;
75700;SDS011;64321;48.796;44.740;2023-04-05T16:44:59;33.28;;;8.27;;
75700;SDS011;64321;48.796;44.740;2023-04-05T16:50:07;33.42;;;9.38;;
75700;SDS011;64321;48.796;44.740;2023-04-05T16:55:19;41.90;;;10.40;;
75700;SDS011;64321;48.796;44.740;2023-04-05T17:00:26;34.92;;;10.75;;
75700;SDS011;64321;48.796;44.740;2023-04-05T17:05:39;48.20;;;11.07;;
75700;SDS011;64321;48.796;44.740;2023-04-05T17:10:49;42.60;;;11.75;;
75700;SDS011;64321;48.796;44.740;2023-04-05T17:15:58;52.95;;;11.43;;
75700;SDS011;64321;48.796;44.740;2023-04-05T17:21:07;37.25;;;11.05;;
75700;SDS011;64321;48.796;44.740;2023-04-05T17:26:18;49.35;;;12.70;;
75700;SDS011;64321;48.796;44.740;2023-04-05T17:31:26;36.63;;;9.68;;
75700;SDS011;64321;48.796;44.740;2023-04-05T17:36:38;32.63;;;9.75;;
75700;SDS011;64321;48.796;44.740;2023-04-05T17:48:12;21.70;;;7.18;;
75700;SDS011;64321;48.796;44.740;2023-04-05T17:53:39;19.13;;;7.53;;
75700;SDS011;64321;48.796;44.740;2023-04-05T17:59:29;19.70;;;6.68;;
75700;SDS011;64321;48.796;44.740;2023-04-05T18:05:53;31.33;;;9.35;;
75700;SDS011;64321;48.796;44.740;2023-04-05T18:11:20;35.20;;;8.13;;
75700;SDS011;64321;48.796;44.740;2023-04-05T18:16:55;34.95;;;10.40;;
75700;SDS011;64321;48.796;44.740;2023-04-05T18:22:22;24.52;;;8.68;;
75700;SDS011;64321;48.796;44.740;2023-04-05T18:27:55;23.40;;;7.50;;
75700;SDS011;64321;48.796;44.740;2023-04-05T18:33:38;19.30;;;8.57;;
75700;SDS011;64321;48.796;44.740;2023-04-05T18:38:58;15.00;;;5.53;;
75700;SDS011;64321;48.796;44.740;2023-04-05T18:44:16;13.38;;;5.88;;
75700;SDS011;64321;48.796;44.740;2023-04-05T18:50:15;13.00;;;5.30;;
75700;SDS011;64321;48.796;44.740;2023-04-05T18:55:40;7.07;;;3.33;;
75700;SDS011;64321;48.796;44.740;2023-04-05T19:01:54;6.97;;;4.15;;
75700;SDS011;64321;48.796;44.740;2023-04-05T19:08:14;6.10;;;3.50;;
75700;SDS011;64321;48.796;44.740;2023-04-05T19:13:41;7.95;;;2.83;;
75700;SDS011;64321;48.796;44.740;2023-04-05T19:19:05;4.97;;;2.80;;
75700;SDS011;64321;48.796;44.740;2023-04-05T19:24:31;6.90;;;4.72;;
75700;SDS011;64321;48.796;44.740;2023-04-05T19:30:31;6.63;;;4.32;;
75700;SDS011;64321;48.796;44.740;2023-04-05T19:36:24;6.75;;;3.75;;
75700;SDS011;64321;48.796;44.740;2023-04-05T19:42:33;7.78;;;3.85;;
75700;SDS011;64321;48.796;44.740;2023-04-05T19:48:40;5.00;;;2.95;;
75700;SDS011;64321;48.796;44.740;2023-04-05T20:06:53;6.60;;;3.92;;
75700;SDS011;64321;48.796;44.740;2023-04-05T20:12:31;6.22;;;3.63;;
75700;SDS011;64321;48.796;44.740;2023-04-05T20:24:32;4.70;;;2.47;;
75700;SDS011;64321;48.796;44.740;2023-04-05T20:30:27;6.00;;;3.53;;
75700;SDS011;64321;48.796;44.740;2023-04-05T20:36:01;6.00;;;2.97;;
75700;SDS011;64321;48.796;44.740;2023-04-05T20:42:23;6.38;;;3.22;;
75700;SDS011;64321;48.796;44.740;2023-04-05T20:48:21;9.75;;;3.90;;
75700;SDS011;64321;48.796;44.740;2023-04-05T20:54:39;16.35;;;6.85;;
75700;SDS011;64321;48.796;44.740;2023-04-05T21:00:02;15.20;;;6.97;;
75700;SDS011;64321;48.796;44.740;2023-04-05T21:05:52;11.18;;;6.50;;
75700;SDS011;64321;48.796;44.740;2023-04-05T21:17:45;8.18;;;5.00;;
75700;SDS011;64321;48.796;44.740;2023-04-05T21:23:07;10.55;;;5.70;;
75700;SDS011;64321;48.796;44.740;2023-04-05T21:28:26;8.25;;;5.03;;
75700;SDS011;64321;48.796;44.740;2023-04-05T21:34:26;8.57;;;4.85;;
75700;SDS011;64321;48.796;44.740;2023-04-05T21:40:03;9.70;;;6.28;;
75700;SDS011;64321;48.796;44.740;2023-04-05T21:45:30;8.70;;;4.80;;
75700;SDS011;64321;48.796;44.740;2023-04-05T21:52:00;8.20;;;4.78;;
75700;SDS011;64321;48.796;44.740;2023-04-05T21:58:02;7.85;;;4.85;;
75700;SDS011;64321;48.796;44.740;2023-04-05T22:03:28;8.57;;;4.88;;
75700;SDS011;64321;48.796;44.740;2023-04-05T22:09:05;7.63;;;5.05;;
75700;SDS011;64321;48.796;44.740;2023-04-05T22:15:03;8.80;;;4.72;;
75700;SDS011;64321;48.796;44.740;2023-04-05T22:21:08;9.45;;;3.83;;
75700;SDS011;64321;48.796;44.740;2023-04-05T22:26:54;9.77;;;5.43;;
75700;SDS011;64321;48.796;44.740;2023-04-05T22:32:41;6.85;;;4.10;;
75700;SDS011;64321;48.796;44.740;2023-04-05T22:38:09;7.55;;;5.85;;
75700;SDS011;64321;48.796;44.740;2023-04-05T22:44:16;6.75;;;3.95;;
75700;SDS011;64321;48.796;44.740;2023-04-05T22:49:58;6.18;;;3.80;;
75700;SDS011;64321;48.796;44.740;2023-04-05T22:56:06;6.50;;;3.88;;
75700;SDS011;64321;48.796;44.740;2023-04-05T23:02:02;6.35;;;3.70;;
75700;SDS011;64321;48.796;44.740;2023-04-05T23:07:44;5.72;;;3.70;;
75700;SDS011;64321;48.796;44.740;2023-04-05T23:19:18;7.25;;;5.38;;
75700;SDS011;64321;48.796;44.740;2023-04-05T23:24:41;8.50;;;5.45;;
75700;SDS011;64321;48.796;44.740;2023-04-05T23:36:54;6.90;;;4.32;;
75700;SDS011;64321;48.796;44.740;2023-04-05T23:42:56;7.13;;;4.07;;
75700;SDS011;64321;48.796;44.740;2023-04-05T23:54:51;6.07;;;4.18;;
